Latest Coastal Weather Observations for Taree Airport

IDN60701

Issued at 4:45 am EDT Sunday 26 October 2014 (issued every 10 minutes, with the page automatically refreshed every 10 minutes)

About coastal observations | Map of coastal stations | Coastal observations for NSW | Marine services | Other Formats
Station Details ID: 060141 Name: TAREE AIRPORT AWS Lat: -31.89 Lon: 152.51 Height: 8.0 m
Data from the previous 72 hours. | See also: Recent months at Taree Airport
Date/Time
EDT
Temp

°C
Wind Pressure Rain
since 9am
mm
Weather Cloud Vis
km
Sea
Height
m
Swell
Dir
 
Speed
knots
Gust
knots
hPa Trend Height
m
Period
s
Dir
26/04:30am 19.0 N 1 6 1013.8 - 0.0 - - - - - - -
26/04:00am 18.9 N 1 3 1014.1 - 0.0 - - - - - - -
26/03:30am 19.2 SSE 7 12 1014.3 - 0.0 - - - - - - -
26/03:00am 19.3 S 8 13 1014.7 - 0.0 - - - - - - -
26/02:30am 18.2 SW 7 15 1014.2 - 0.0 - - - - - - -
26/02:00am 18.2 S 4 6 1014.1 - 0.0 - - - - - - -
26/01:30am 17.3 ENE 6 8 1013.7 - 0.0 - - - - - - -
26/01:00am 18.0 SSE 1 4 1013.9 - 0.0 - - - - - - -
26/12:30am 18.0 S 5 5 1014.3 - 0.0 - - - - - - -
26/12:00am 18.0 NNE 1 4 1014.4 - 0.0 - - - - - - -
 
Date/Time
EDT
Temp

°C
Wind Pressure Rain
since 9am
mm
Weather Cloud Vis
km
Sea
Height
m
Swell
Dir
 
Speed
knots
Gust
knots
hPa Trend Height
m
Period
s
Dir
25/11:30pm 18.8 NNW 6 7 1014.4 - 0.0 - - - - - - -
25/11:00pm 19.2 NNE 2 4 1015.4 - 0.0 - - - - - - -
25/10:30pm 20.4 SSE 4 5 1016.0 - 0.0 - - - - - - -
25/10:00pm 20.4 W 6 8 1016.0 - 0.0 - - - - - - -
25/09:30pm 20.1 CALM 0 0 1015.6 - 0.0 - - - - - - -
25/09:00pm 20.4 CALM 0 0 1015.3 - 0.0 - - - - - - -
25/08:30pm 20.1 CALM 0 0 1014.8 - 0.0 - - - - - - -
25/08:00pm 21.1 CALM 0 0 1014.5 - 0.0 - - - - - - -
25/07:30pm 22.6 CALM 0 0 1014.4 - 0.0 - - - - - - -
25/07:00pm 23.5 S 1 3 1014.1 - 0.0 - - - - - - -
25/06:30pm 23.5 SE 5 7 1014.0 - 0.0 - - - - - - -
25/06:00pm 24.6 SE 7 10 1013.7 - 0.0 - - - - - - -
25/05:30pm 25.4 SE 9 13 1013.3 - 0.0 - - - - - - -
25/05:00pm 26.0 ESE 10 14 1012.9 - 0.0 - - - - - - -
25/04:30pm 26.7 SE 11 14 1012.7 - 0.0 - - - - - - -
25/04:00pm 26.8 SE 11 15 1012.7 - 0.0 - - - - - - -
25/03:30pm 28.4 SE 9 14 1012.6 - 0.0 - - - - - - -
25/03:00pm 29.2 SE 9 11 1012.7 - 0.0 - - - - - - -
25/02:30pm 29.6 ESE 7 9 1012.9 - 0.0 - - - - - - -
25/02:00pm 28.9 ESE 7 10 1013.3 - 0.0 - - - - - - -
25/01:30pm 28.8 E 9 11 1013.5 - 0.0 - - - - - - -
25/01:00pm 28.7 ESE 9 12 1013.7 - 0.0 - - - - - - -
25/12:30pm 27.7 ESE 8 11 1014.0 - 0.0 - - - - - - -
25/12:00pm 28.1 E 6 8 1014.2 - 0.0 - - - - - - -
25/11:30am 27.6 E 7 8 1014.6 - 0.0 - - - - - - -
25/11:00am 27.1 E 7 9 1014.7 - 0.0 - - - - - - -
25/10:30am 27.0 E 7 9 1014.8 - 0.0 - - - - - - -
25/10:00am 26.1 SE 4 7 1014.8 - 0.0 - - - - - - -
25/09:30am 24.9 SSE 6 7 1014.7 - 0.0 - - - - - - -
25/09:00am 23.1 SSE 4 5 1014.6 - - - - - - - - -
25/08:30am 21.7 SE 4 5 1014.3 - - - - - - - - -
25/08:00am 20.2 E 1 3 1014.0 - - - - - - - - -
25/07:30am 18.7 CALM 0 0 1013.7 - - - - - - - - -
25/07:00am 17.2 CALM 0 0 1013.5 - - - - - - - - -
25/06:30am 16.3 CALM 0 0 1013.2 - - - - - - - - -
25/06:00am 15.5 CALM 0 0 1013.1 - - - - - - - - -
25/05:30am 15.8 CALM 0 0 1012.8 - - - - - - - - -
25/05:00am 17.0 CALM 0 0 1013.0 - - - - - - - - -
25/04:30am 17.2 CALM 0 0 1013.0 - - - - - - - - -
25/04:00am 17.6 SSE 3 4 1012.9 - - - - - - - - -
25/03:30am 18.1 W 2 5 1012.9 - - - - - - - - -
25/03:00am 18.1 NNE 3 5 1013.2 - 1.0 - - - - - - -
25/02:30am 18.6 N 4 7 1013.6 - - - - - - - - -
25/02:00am 18.7 NNE 6 10 1013.9 - - - - - - - - -
25/01:30am 18.7 ENE 11 17 1013.7 - - - - - - - - -
25/01:27am 18.7 ENE 10 14 1014.3 - - - - - - - - -
25/01:00am 19.0 E 5 7 1016.3 - - - - - - - - -
25/12:30am 19.4 S 7 9 1016.2 - - - - - - - - -
25/12:00am 20.2 NE 7 11 1014.8 - - - - - - - - -
 
Date/Time
EDT
Temp

°C
Wind Pressure Rain
since 9am
mm
Weather Cloud Vis
km
Sea
Height
m
Swell
Dir
 
Speed
knots
Gust
knots
hPa Trend Height
m
Period
s
Dir
24/11:30pm 20.2 NE 9 15 1014.4 - - - - - - - - -
24/11:00pm 20.3 NE 10 15 1014.9 - - - - - - - - -
24/10:30pm 19.9 NE 8 12 1015.3 - - - - - - - - -
24/10:00pm 19.8 NE 9 14 1015.7 - - - - - - - - -
24/09:30pm 19.9 NE 7 9 1016.1 - - - - - - - - -
24/09:00pm 20.8 NE 9 15 1016.2 - - - - - - - - -
24/08:30pm 21.0 NE 7 10 1016.1 - - - - - - - - -
24/08:00pm 21.4 NE 9 15 1015.8 - - - - - - - - -
24/07:30pm 22.0 NE 10 15 1015.6 - - - - - - - - -
24/07:00pm 22.6 NE 9 15 1015.5 - - - - - - - - -
24/06:30pm 23.4 NE 12 18 1015.4 - - - - - - - - -
24/06:00pm 24.5 NE 14 19 1015.3 - - - - - - - - -
24/05:30pm 25.3 NE 13 18 1015.3 - - - - - - - - -
24/05:00pm 25.9 ENE 14 19 1015.5 - - - - - - - - -
24/04:30pm 25.6 ENE 16 20 1015.8 - - - - - - - - -
24/04:00pm 25.5 ENE 15 19 1016.2 - - - - - - - - -
24/03:30pm 25.5 ENE 17 20 1016.5 - 0.0 - - - - - - -
24/03:00pm 26.0 ENE 15 20 1016.7 - 0.0 - - - - - - -
24/02:30pm 24.8 E 11 17 1017.0 - 0.0 - - - - - - -
24/02:00pm 25.9 E 13 19 1017.4 - 0.0 - - - - - - -
24/01:30pm 28.3 E 8 13 1017.9 - 0.0 - - - - - - -
24/01:00pm 27.8 NNE 6 10 1018.5 - 0.0 - - - - - - -
24/12:30pm 27.1 NE 5 9 1018.8 - 0.0 - - - - - - -
24/12:00pm 26.2 N 6 9 1019.2 - 0.0 - - - - - - -
24/11:30am 25.0 NNE 6 10 1019.8 - 0.0 - - - - - - -
24/11:00am 24.7 N 5 9 1020.2 - 0.0 - - - - - - -
24/10:30am 23.5 N 4 7 1020.5 - 0.0 - - - - - - -
24/10:00am 22.8 NE 7 12 1020.6 - 0.0 - - - - - - -
24/09:30am 21.9 NNE 6 9 1021.0 - 0.0 - - - - - - -
24/09:00am 20.5 N 5 6 1021.4 - 0.0 - - - - - - -
24/08:30am 18.1 NW 5 6 1021.6 - 0.0 - - - - - - -
24/08:00am 16.8 W 5 6 1021.6 - 0.0 - - - - - - -
24/07:30am 16.0 CALM 0 0 1021.3 - 0.0 - - - - - - -
24/07:00am 14.5 WSW 4 6 1021.0 - 0.0 - - - - - - -
24/06:30am 13.6 W 2 4 1020.3 - 0.0 - - - - - - -
24/06:00am 13.6 NNW 3 4 1019.9 - 0.0 - - - - - - -
24/05:30am 13.8 SW 3 5 1019.5 - 0.0 - - - - - - -
24/05:00am 13.9 CALM 0 0 1019.0 - 0.0 - - - - - - -
24/04:30am 14.3 CALM 0 0 1018.9 - 0.0 - - - - - - -
24/04:00am 14.4 CALM 0 0 1018.7 - 0.0 - - - - - - -
24/03:30am 14.0 WNW 1 4 1018.7 - 0.0 - - - - - - -
24/03:00am 14.7 CALM 0 0 1018.7 - 0.0 - - - - - - -
24/02:30am 13.9 CALM 0 0 1018.8 - 0.0 - - - - - - -
24/02:00am 14.7 CALM 0 0 1019.1 - 0.0 - - - - - - -
24/01:30am 15.1 CALM 0 0 1019.2 - 0.0 - - - - - - -
24/01:00am 15.6 CALM 0 0 1019.3 - 0.0 - - - - - - -
24/12:30am 16.5 CALM 0 0 1019.4 - 0.0 - - - - - - -
24/12:00am 16.4 ESE 3 5 1019.4 - 0.0 - - - - - - -
 
Date/Time
EDT
Temp

°C
Wind Pressure Rain
since 9am
mm
Weather Cloud Vis
km
Sea
Height
m
Swell
Dir
 
Speed
knots
Gust
knots
hPa Trend Height
m
Period
s
Dir
23/11:30pm 16.1 ENE 4 5 1019.3 - 0.0 - - - - - - -
23/11:00pm 16.4 SE 2 4 1019.3 - 0.0 - - - - - - -
23/10:30pm 17.2 CALM 0 4 1019.4 - 0.0 - - - - - - -
23/10:00pm 17.9 SW 1 5 1019.3 - 0.0 - - - - - - -
23/09:30pm 17.8 E 2 4 1018.8 - 0.0 - - - - - - -
23/09:00pm 18.2 NE 4 5 1018.2 - 0.0 - - - - - - -
23/08:30pm 18.8 ENE 4 5 1018.3 - 0.0 - - - - - - -
23/08:00pm 19.5 E 3 5 1018.0 - 0.0 - - - - - - -
23/07:30pm 20.5 E 4 5 1017.7 - 0.0 - - - - - - -
23/07:00pm 22.0 ESE 5 7 1017.1 - 0.0 - - - - - - -
23/06:30pm 23.5 E 6 8 1016.5 - 0.0 - - - - - - -
23/06:00pm 24.8 E 7 8 1016.0 - 0.0 - - - - - - -
23/05:30pm 25.2 E 8 12 1015.8 - 0.0 - - - - - - -
23/05:00pm 25.7 ENE 9 13 1015.7 - 0.0 - - - - - - -
23/04:30pm 26.4 E 8 12 1015.4 - 0.0 - - - - - - -
23/04:00pm 26.4 E 9 12 1015.2 - 0.0 - - - - - - -
23/03:30pm 26.1 E 10 14 1015.3 - 0.0 - - - - - - -
23/03:00pm 26.3 E 9 12 1015.5 - 0.0 - - - - - - -
23/02:30pm 26.8 E 9 13 1015.6 - 0.0 - - - - - - -
23/02:00pm 27.5 E 8 12 1016.0 - 0.0 - - - - - - -
23/01:30pm 27.7 E 6 9 1016.3 - 0.0 - - - - - - -
23/01:00pm 27.6 ESE 6 8 1016.6 - 0.0 - - - - - - -
23/12:30pm 26.9 E 5 9 1017.2 - 0.0 - - - - - - -
23/12:00pm 25.8 ESE 4 7 1017.6 - 0.0 - - - - - - -
23/11:30am 25.2 NE 4 6 1018.1 - 0.0 - - - - - - -
23/11:00am 23.2 SSE 3 5 1018.4 - 0.0 - - - - - - -
23/10:30am 22.7 ENE 2 5 1018.7 - 0.0 - - - - - - -
23/10:00am 20.9 N 1 5 1018.9 - 0.0 - - - - - - -
23/09:30am 20.2 ENE 4 6 1018.9 - 0.0 - - - - - - -
23/09:00am 18.5 SW 2 5 1019.2 - 0.0 - - - - - - -
23/08:30am 17.0 NW 3 5 1019.1 - 0.0 - - - - - - -
23/08:00am 15.0 W 4 5 1019.3 - 0.0 - - - - - - -
23/07:30am 13.7 W 5 7 1019.4 - 0.0 - - - - - - -
23/07:00am 12.5 W 4 4 1019.2 - 0.0 - - - - - - -
23/06:30am 11.7 CALM 0 0 1019.0 - 0.0 - - - - - - -
23/06:00am 11.7 CALM 0 1 1018.9 - 0.0 - - - - - - -
23/05:30am 12.1 WNW 3 4 1018.9 - 0.0 - - - - - - -
23/05:00am 11.6 CALM 0 0 1018.6 - 0.0 - - - - - - -

Other Formats:

Comma delimited format used in spreadsheet applications
http://www.bom.gov.au/fwo/IDN60701/IDN60701.95784.axf

JavaScript Object Notation format (JSON) in row-major order
http://www.bom.gov.au/fwo/IDN60701/IDN60701.95784.json